WetterOnline ( https://www.wetteronline.de )

Wetter aktuell Tuttlingen

Aktuelles Wetter: Klippeneck (975m)

6-stündlich | Neueste Meldungen
Ortszeit Temperatur Wetter
Do, 27.01. 1:00 1.5° C leicht bewölkt
Mi, 26.01. 19:00 -2.0° C bewölkt
Mi, 26.01. 13:00 4.7° C wolkenlos
Mi, 26.01. 7:00 -0.6° C wolkenlos
Mi, 26.01. 1:00 2.8° C wolkenlos
Di, 25.01. 19:00 1.4° C wolkenlos
Di, 25.01. 13:00 7.6° C wolkenlos
Di, 25.01. 7:00 1.4° C wolkenlos
Ortszeit Temperatur Wetter
Do, 27.01. 3:00 1.6° C wolkig
Do, 27.01. 2:50 1.6° C wolkig
Do, 27.01. 2:40 2.1° C bedeckt
Do, 27.01. 2:30 1.9° C wolkig
Do, 27.01. 2:20 1.9° C wolkig
Do, 27.01. 2:10 1.5° C bedeckt
Do, 27.01. 2:00 1.6° C wolkig
Do, 27.01. 1:30 1.7° C wolkig
Do, 27.01. 1:00 1.5° C leicht bewölkt
Do, 27.01. 0:30 1.1° C bedeckt
Do, 27.01. 0:00 1.0° C wolkig
Ortszeit Relative Feuchte Sichtweite
Do, 27.01. 1:00 49% >70 km
Mi, 26.01. 19:00 73% 40 km
Mi, 26.01. 13:00 37% 45 km
Mi, 26.01. 7:00 67% 45 km
Mi, 26.01. 1:00 57% >70 km
Di, 25.01. 19:00 75% 50 km
Di, 25.01. 13:00 37% 55 km
Di, 25.01. 7:00 62% >70 km
Ortszeit Relative Feuchte Sichtweite
Do, 27.01. 3:00 44% >70 km
Do, 27.01. 2:50 44% -
Do, 27.01. 2:40 41% -
Do, 27.01. 2:30 44% >70 km
Do, 27.01. 2:20 44% -
Do, 27.01. 2:10 46% -
Do, 27.01. 2:00 44% >70 km
Do, 27.01. 1:30 46% >70 km
Do, 27.01. 1:00 49% >70 km
Do, 27.01. 0:30 54% 65 km
Do, 27.01. 0:00 55% 65 km
Ortszeit Niederschlagsmenge Niederschlagsart
Do, 27.01. 1:00 0.0 l/m2 in 6 Std. -
Mi, 26.01. 19:00 0.0 l/m2 in 12 Std. -
Mi, 26.01. 13:00 0.0 l/m2 in 6 Std. -
Mi, 26.01. 7:00 0.0 l/m2 in 12 Std. -
Mi, 26.01. 1:00 0.0 l/m2 in 6 Std. -
Di, 25.01. 19:00 0.0 l/m2 in 12 Std. -
Di, 25.01. 13:00 0.0 l/m2 in 6 Std. -
Di, 25.01. 7:00 0.0 l/m2 in 12 Std. -
Ortszeit Niederschlagsmenge Niederschlagsart
Do, 27.01. 3:00 0.0 l/m2 in 1 Std. -
Do, 27.01. 2:50 keine Meldung -
Do, 27.01. 2:40 keine Meldung -
Do, 27.01. 2:30 0.0 l/m2 in 1 Std. -
Do, 27.01. 2:20 keine Meldung -
Do, 27.01. 2:10 keine Meldung -
Do, 27.01. 2:00 0.0 l/m2 in 1 Std. -
Do, 27.01. 1:30 0.0 l/m2 in 1 Std. -
Do, 27.01. 1:00 0.0 l/m2 in 1 Std. -
Do, 27.01. 0:30 0.0 l/m2 in 1 Std. -
Do, 27.01. 0:00 0.0 l/m2 in 1 Std. -
Ortszeit Stärke Spitze Richtung
km/h Bft. km/h Grad Sektor
Do, 27.01. 1:00 13 3 19 230° SW
Mi, 26.01. 19:00 6 1 20 240° SW
Mi, 26.01. 13:00 6 1 22 250° W
Mi, 26.01. 7:00 11 2 22 340° N
Mi, 26.01. 1:00 13 3 24 190° S
Di, 25.01. 19:00 9 2 20 340° N
Di, 25.01. 13:00 4 1 14 300° NW
Di, 25.01. 7:00 7 2 29 180° S
Ortszeit Stärke Spitze Richtung
km/h Bft. km/h Grad Sektor
Do, 27.01. 3:00 13 3 20 240° SW
Do, 27.01. 2:50 13 3 - 240° SW
Do, 27.01. 2:40 14 3 - 260° W
Do, 27.01. 2:30 14 3 18 250° W
Do, 27.01. 2:20 14 3 - 250° W
Do, 27.01. 2:10 14 3 - 240° SW
Do, 27.01. 2:00 11 2 18 240° SW
Do, 27.01. 1:30 11 2 18 240° SW
Do, 27.01. 1:00 13 3 19 230° SW
Do, 27.01. 0:30 11 2 18 230° SW
Do, 27.01. 0:00 11 2 18 240° SW
Ortszeit Untergrenze Bedeckung Gattung
total tief tief mittel hoch
Do, 27.01. 1:00 5700 m 3/8 1/8 - - -
Mi, 26.01. 19:00 6600 m 8/8 6/8 - - -
Mi, 26.01. 13:00 - 0/8 0/8 - - -
Mi, 26.01. 7:00 - 0/8 0/8 - - -
Mi, 26.01. 1:00 - 0/8 0/8 - - -
Di, 25.01. 19:00 - 0/8 0/8 - - -
Di, 25.01. 13:00 - 0/8 0/8 - - -
Di, 25.01. 7:00 - 0/8 0/8 - - -
Ortszeit Bedeckungsgrad in Achtel und Wolkenuntergrenze
Do, 27.01. 3:00 8(9000m)
Do, 27.01. 2:50 8(9000m)
Do, 27.01. 2:40 8
Do, 27.01. 2:30 2(9000m) 7(9000m) 8(9000m)
Do, 27.01. 2:20 2(9000m) 7(9000m) 8(9000m)
Do, 27.01. 2:10 8
Do, 27.01. 2:00 8(9000m)
Do, 27.01. 1:30 3(8400m) 8(9000m)
Do, 27.01. 1:00 1(5700m) 3(9000m)
Do, 27.01. 0:30 7(5400m) 8(5700m)
Do, 27.01. 0:00 2(4800m) 4(8100m) 6(8700m)
Ortszeit Stationsdruck (hPa) Tendenz (hPa in 3 Std.)
Do, 27.01. 1:00 914 - 0,8
Mi, 26.01. 19:00 915 0,0
Mi, 26.01. 13:00 915 - 0,2
Mi, 26.01. 7:00 915 - 0,3
Mi, 26.01. 1:00 916 - 0,7
Di, 25.01. 19:00 916 + 0,2
Di, 25.01. 13:00 917 - 0,2
Di, 25.01. 7:00 916 - 0,3
Ortszeit Stationsdruck (hPa) Tendenz (hPa in 3 Std.)
Do, 27.01. 3:00 914 - 0,6
Do, 27.01. 2:50 914 keine Meldung
Do, 27.01. 2:40 914 keine Meldung
Do, 27.01. 2:30 914 - 0,4
Do, 27.01. 2:20 914 keine Meldung
Do, 27.01. 2:10 914 keine Meldung
Do, 27.01. 2:00 914 - 0,7
Do, 27.01. 1:30 914 - 0,9
Do, 27.01. 1:00 914 - 0,8
Do, 27.01. 0:30 914 - 0,9
Do, 27.01. 0:00 915 - 0,8
Ortszeit Schneehöhe (cm)
Do, 27.01. 1:00 11
Mi, 26.01. 19:00 11
Mi, 26.01. 13:00 11
Mi, 26.01. 7:00 11
Mi, 26.01. 1:00 11
Di, 25.01. 19:00 11
Di, 25.01. 13:00 11
Di, 25.01. 7:00 11
Ortszeit Schneehöhe (cm)
Do, 27.01. 3:00 11
Do, 27.01. 2:50 11
Do, 27.01. 2:40 11
Do, 27.01. 2:30 11
Do, 27.01. 2:20 11
Do, 27.01. 2:10 11
Do, 27.01. 2:00 11
Do, 27.01. 1:30 11
Do, 27.01. 1:00 11
Do, 27.01. 0:30 11
Do, 27.01. 0:00 11
Link zu dieser Seite / Seite empfehlen

Das Wetter in ...